createdAt,value
2022-11-09T00:04:34.033Z,72.99
2022-11-09T00:09:36.396Z,72.99
2022-11-09T00:14:39.348Z,72.95
2022-11-09T00:19:41.648Z,72.80
2022-11-09T00:24:44.154Z,73.22
2022-11-09T00:29:46.462Z,72.99
2022-11-09T00:34:48.952Z,73.42
2022-11-09T00:39:51.196Z,72.96
2022-11-09T00:44:53.351Z,73.17
2022-11-09T00:49:56.001Z,73.48
2022-11-09T00:54:58.181Z,73.32
2022-11-09T01:00:00.369Z,73.13
2022-11-09T01:05:02.547Z,73.39
2022-11-09T01:10:06.417Z,73.77
2022-11-09T01:15:09.298Z,73.66
2022-11-09T01:20:12.552Z,74.44
2022-11-09T01:25:15.821Z,73.74
2022-11-09T01:30:18.128Z,74.44
2022-11-09T01:35:20.701Z,74.93
2022-11-09T01:40:22.895Z,74.12
2022-11-09T01:45:27.338Z,74.28
2022-11-09T01:50:56.462Z,73.55
2022-11-09T01:56:03.394Z,73.94
2022-11-09T02:01:11.586Z,75.09
2022-11-09T02:06:16.958Z,74.06
2022-11-09T02:11:22.913Z,73.62
2022-11-09T02:16:26.945Z,73.93
2022-11-09T02:21:32.071Z,73.83
2022-11-09T02:26:40.055Z,73.87
2022-11-09T02:31:47.947Z,73.60
2022-11-09T02:36:50.363Z,73.90
2022-11-09T02:42:02.938Z,73.88
2022-11-09T02:47:06.159Z,74.21
2022-11-09T02:52:08.528Z,74.02
2022-11-09T02:57:10.866Z,73.94
2022-11-09T03:02:13.077Z,74.13
2022-11-09T03:07:15.389Z,74.35
2022-11-09T03:12:29.720Z,74.41
2022-11-09T03:17:32.707Z,74.88
2022-11-09T03:22:35.020Z,74.70
2022-11-09T03:27:37.297Z,74.63
2022-11-09T03:32:39.503Z,74.72
2022-11-09T03:37:41.845Z,74.80
2022-11-09T03:42:46.193Z,74.99
2022-11-09T03:47:48.668Z,74.75
2022-11-09T03:52:50.829Z,74.88
2022-11-09T03:57:53.084Z,74.86
2022-11-09T04:02:55.292Z,75.14
2022-11-09T04:07:59.581Z,75.21
2022-11-09T04:13:01.941Z,75.10
2022-11-09T04:18:04.280Z,74.88
2022-11-09T04:23:07.974Z,75.06
2022-11-09T04:28:13.272Z,75.22
2022-11-09T04:33:15.652Z,75.46
2022-11-09T04:38:17.973Z,75.18
2022-11-09T04:43:20.372Z,75.19
2022-11-09T04:48:22.891Z,75.44
2022-11-09T04:53:25.494Z,75.29
2022-11-09T04:58:28.178Z,75.13
2022-11-09T05:03:30.661Z,75.11
2022-11-09T05:08:32.883Z,74.94
2022-11-09T05:13:35.076Z,74.97
2022-11-09T05:18:37.452Z,75.06
2022-11-09T05:23:59.080Z,75.31
2022-11-09T05:29:04.108Z,75.05
2022-11-09T05:34:16.261Z,75.07
2022-11-09T05:39:18.484Z,74.92
2022-11-09T05:44:20.874Z,74.87
2022-11-09T05:49:23.207Z,75.19
2022-11-09T05:54:25.529Z,75.13
2022-11-09T05:59:27.859Z,75.12
2022-11-09T06:04:30.032Z,74.69
2022-11-09T06:09:32.215Z,74.29
2022-11-09T06:14:34.674Z,74.38
2022-11-09T06:19:36.993Z,74.29
2022-11-09T06:24:39.791Z,74.13
2022-11-09T06:29:42.001Z,74.39
2022-11-09T06:34:44.771Z,74.31
2022-11-09T06:39:47.838Z,74.22
2022-11-09T06:44:50.059Z,74.37
2022-11-09T06:49:52.310Z,74.25
2022-11-09T06:54:54.483Z,74.13
2022-11-09T06:59:56.735Z,73.94
2022-11-09T07:04:59.104Z,73.95
2022-11-09T07:10:01.480Z,74.05
2022-11-09T07:15:05.023Z,73.99
2022-11-09T07:20:11.163Z,74.26
2022-11-09T07:25:14.043Z,74.62
2022-11-09T07:30:16.300Z,74.73
2022-11-09T07:35:18.941Z,74.15
2022-11-09T07:40:21.394Z,74.53
2022-11-09T07:45:23.580Z,73.95
2022-11-09T07:50:27.076Z,74.29
2022-11-09T07:55:30.664Z,74.35
2022-11-09T08:00:34.862Z,73.99
2022-11-09T08:05:37.770Z,73.89
2022-11-09T08:10:40.639Z,73.52
2022-11-09T08:15:43.406Z,72.87
2022-11-09T08:20:46.135Z,72.83
2022-11-09T08:25:50.259Z,72.49
2022-11-09T08:30:57.905Z,72.47
2022-11-09T08:36:00.149Z,71.90
2022-11-09T08:41:02.378Z,71.88
2022-11-09T08:46:05.195Z,71.45
2022-11-09T08:51:07.623Z,71.41
2022-11-09T08:56:11.347Z,70.91
2022-11-09T09:01:17.110Z,70.69
2022-11-09T09:06:19.980Z,70.23
2022-11-09T09:11:22.293Z,70.32
2022-11-09T09:16:24.642Z,69.57
2022-11-09T09:21:26.995Z,68.94
2022-11-09T09:26:29.219Z,68.33
2022-11-09T09:31:31.715Z,68.16
2022-11-09T09:36:36.264Z,68.08
2022-11-09T09:41:53.922Z,67.38
2022-11-09T09:47:04.809Z,67.27
2022-11-09T09:52:21.217Z,66.46
2022-11-09T09:57:25.235Z,65.54
2022-11-09T10:02:28.773Z,65.49
2022-11-09T10:08:01.548Z,64.89
2022-11-09T10:19:23.369Z,64.23
2022-11-09T10:30:19.785Z,62.36
2022-11-09T10:35:37.852Z,62.21
2022-11-09T10:41:32.428Z,61.52
2022-11-09T10:47:08.470Z,61.09
2022-11-09T10:52:47.271Z,62.03
2022-11-09T10:58:26.256Z,61.38
2022-11-09T11:03:34.372Z,61.18
2022-11-09T11:08:42.365Z,61.04
2022-11-09T11:13:45.475Z,60.95
2022-11-09T11:18:48.453Z,61.34
2022-11-09T11:24:17.004Z,61.01
2022-11-09T11:29:49.289Z,61.14
2022-11-09T11:35:00.165Z,60.84
2022-11-09T11:40:19.825Z,60.86
2022-11-09T11:45:40.711Z,60.97
2022-11-09T11:50:57.869Z,60.05
2022-11-09T11:56:00.011Z,60.10
2022-11-09T12:01:26.632Z,60.06
2022-11-09T12:06:49.368Z,59.18
2022-11-09T12:12:06.383Z,58.71
2022-11-09T12:17:40.935Z,58.12
2022-11-09T12:23:31.493Z,58.23
2022-11-09T12:29:09.312Z,58.14
2022-11-09T12:40:24.541Z,58.01
2022-11-09T12:45:39.089Z,57.89
2022-11-09T12:50:42.349Z,57.83
2022-11-09T12:55:50.554Z,57.30
2022-11-09T13:00:55.624Z,57.06
2022-11-09T13:06:21.783Z,57.07
2022-11-09T13:11:47.082Z,56.89
2022-11-09T13:17:21.233Z,56.42
2022-11-09T13:22:23.527Z,56.10
2022-11-09T13:27:46.887Z,55.78
2022-11-09T13:33:52.133Z,55.46
2022-11-09T13:39:43.142Z,55.28
2022-11-09T13:44:47.388Z,55.47
2022-11-09T13:49:51.605Z,55.69
2022-11-09T13:54:55.009Z,55.94
2022-11-09T14:00:00.337Z,55.97
2022-11-09T14:05:02.650Z,56.23
2022-11-09T14:10:20.065Z,56.56
2022-11-09T14:15:31.585Z,57.03
2022-11-09T14:21:08.927Z,57.20
2022-11-09T14:26:20.226Z,57.28
2022-11-09T14:31:24.780Z,56.96
2022-11-09T14:36:28.321Z,57.09
2022-11-09T14:41:31.109Z,57.05
2022-11-09T14:46:33.559Z,57.19
2022-11-09T14:51:40.899Z,57.49
2022-11-09T14:56:44.182Z,57.76
2022-11-09T15:02:01.768Z,58.22
2022-11-09T15:07:05.571Z,58.73
2022-11-09T15:12:18.608Z,58.86
2022-11-09T15:17:33.270Z,59.28
2022-11-09T15:22:52.498Z,59.80
2022-11-09T15:28:13.600Z,60.20
2022-11-09T15:33:18.566Z,60.78
2022-11-09T15:38:56.035Z,61.24
2022-11-09T15:43:59.303Z,62.24
2022-11-09T15:49:23.799Z,62.71
2022-11-09T15:54:26.121Z,63.42
2022-11-09T15:59:28.394Z,64.08
2022-11-09T16:04:31.450Z,64.50
2022-11-09T16:09:34.442Z,64.82
2022-11-09T16:14:36.693Z,65.05
2022-11-09T16:19:40.032Z,65.27
2022-11-09T16:24:42.481Z,65.58
2022-11-09T16:29:44.915Z,66.24
2022-11-09T16:34:57.745Z,66.30
2022-11-09T16:40:13.832Z,66.52
2022-11-09T16:45:17.764Z,66.94
2022-11-09T16:50:20.256Z,67.36
2022-11-09T16:55:22.658Z,67.51
2022-11-09T17:00:37.490Z,67.56
2022-11-09T17:05:47.455Z,68.89
2022-11-09T17:10:49.751Z,68.44
2022-11-09T17:15:55.779Z,68.54
2022-11-09T17:20:58.085Z,68.37
2022-11-09T17:26:02.571Z,68.80
2022-11-09T17:31:24.090Z,68.73
2022-11-09T17:36:49.295Z,69.42
2022-11-09T17:41:48.868Z,69.03
2022-11-09T17:46:51.094Z,69.45
2022-11-09T17:51:53.294Z,69.87
2022-11-09T17:56:55.913Z,69.89
2022-11-09T18:01:59.394Z,69.83
2022-11-09T18:07:01.644Z,69.82
2022-11-09T18:12:04.004Z,70.20
2022-11-09T18:17:06.223Z,69.98
2022-11-09T18:22:12.502Z,70.26
2022-11-09T18:27:15.126Z,70.15
2022-11-09T18:32:17.497Z,70.37
2022-11-09T18:37:19.874Z,70.30
2022-11-09T18:42:22.101Z,71.28
2022-11-09T18:47:36.989Z,71.20
2022-11-09T18:52:39.281Z,71.21
2022-11-09T18:57:41.698Z,71.12
2022-11-09T19:02:44.112Z,71.26
2022-11-09T19:07:46.467Z,71.41
2022-11-09T19:12:48.641Z,71.41
2022-11-09T19:17:51.015Z,72.26
2022-11-09T19:22:53.177Z,72.23
2022-11-09T19:27:55.513Z,71.84
2022-11-09T19:32:57.806Z,72.03
2022-11-09T19:38:05.112Z,72.14
2022-11-09T19:43:08.527Z,72.08
2022-11-09T19:48:10.699Z,71.99
2022-11-09T19:53:13.019Z,72.64
2022-11-09T19:58:15.297Z,72.57
2022-11-09T20:03:17.631Z,72.00
2022-11-09T20:08:20.200Z,72.15
2022-11-09T20:13:23.285Z,72.17
2022-11-09T20:18:25.867Z,72.66
2022-11-09T20:23:28.248Z,72.29
2022-11-09T20:28:30.445Z,72.39
2022-11-09T20:33:32.766Z,72.69
2022-11-09T20:38:35.093Z,72.84
2022-11-09T20:43:37.997Z,72.62
2022-11-09T20:48:54.207Z,72.55
2022-11-09T20:54:02.461Z,72.79
2022-11-09T20:59:09.296Z,73.07
2022-11-09T21:04:11.548Z,73.01
2022-11-09T21:09:14.424Z,72.83
2022-11-09T21:14:16.957Z,72.79
2022-11-09T21:19:20.409Z,72.62
2022-11-09T21:24:41.275Z,72.75
2022-11-09T21:29:52.881Z,72.66
2022-11-09T21:34:56.335Z,72.59
2022-11-09T21:39:59.062Z,72.54
2022-11-09T21:45:01.823Z,72.79
2022-11-09T21:50:11.153Z,72.65
2022-11-09T21:55:15.177Z,72.71
2022-11-09T22:00:18.624Z,72.63
2022-11-09T22:05:23.179Z,72.71
2022-11-09T22:10:26.175Z,72.87
2022-11-09T22:15:49.326Z,72.76
2022-11-09T22:20:58.321Z,72.79
2022-11-09T22:26:03.640Z,73.04
2022-11-09T22:31:09.351Z,73.16
2022-11-09T22:36:13.583Z,72.85
2022-11-09T22:41:16.858Z,73.21
2022-11-09T22:46:19.795Z,73.22
2022-11-09T22:51:22.833Z,73.20
2022-11-09T22:56:26.263Z,73.11
2022-11-09T23:01:30.413Z,73.47
2022-11-09T23:06:34.467Z,73.29
2022-11-09T23:11:37.125Z,73.68
2022-11-09T23:16:39.941Z,73.47
2022-11-09T23:21:42.518Z,73.68
2022-11-09T23:26:46.343Z,73.28
2022-11-09T23:31:49.256Z,73.45
2022-11-09T23:36:52.237Z,73.38
2022-11-09T23:41:54.798Z,73.38
2022-11-09T23:46:58.217Z,73.48
2022-11-09T23:52:00.743Z,73.40
2022-11-09T23:57:05.121Z,73.34
